This is the latest recevied weather packets stored in our database for station/object LROD. If no packets are shown the sender has not sent any weather packets the latest 10 day(s).
| Time | Temp. | Humidity | Pressure | Rain* | Wind** | Luminosity | Snow |
|---|---|---|---|---|---|---|---|
| 1777193307 | 18.89° C | 30% | 1013 hPa | - | - | - | - |
| 1777192409 | 18.89° C | 30% | 1013 hPa | - | - | - | - |
| 1777191516 | 18.89° C | 30% | 1013 hPa | - | - | - | - |
| 1777190610 | 18.89° C | 30% | 1013 hPa | - | - | - | - |
| 1777189703 | 17.78° C | 32% | 1012 hPa | - | - | - | - |
| 1777188806 | 17.78° C | 32% | 1012 hPa | - | - | - | - |
| 1777187907 | 17.22° C | 42% | 1011 hPa | - | - | - | - |
| 1777187010 | 17.22° C | 42% | 1011 hPa | - | - | - | - |
| 1777186106 | 15° C | 45% | 1012 hPa | - | - | - | - |
| 1777185209 | 15° C | 45% | 1012 hPa | - | - | - | - |
| 1777184310 | 13.89° C | 48% | 1011 hPa | - | - | - | - |
| 1777183410 | 13.89° C | 48% | 1011 hPa | - | - | - | - |
| 1777182510 | 13.89° C | 48% | 1012 hPa | - | - | - | - |
| 1777181612 | 13.89° C | 48% | 1012 hPa | - | - | - | - |
| 1777180710 | 12.78° C | 51% | 1012 hPa | - | - | - | - |
| 1777179810 | 12.78° C | 51% | 1012 hPa | - | - | - | - |
| 1777178930 | 11.11° C | 58% | 1011 hPa | - | - | - | - |
| 1777178010 | 11.11° C | 58% | 1011 hPa | - | - | - | - |
| 1777177110 | 8.89° C | 66% | 1011 hPa | - | - | - | - |
| 1777176209 | 8.89° C | 66% | 1011 hPa | - | - | - | - |
| 1777175309 | 8.89° C | 62% | 1011 hPa | - | - | - | - |
| 1777174409 | 8.89° C | 62% | 1011 hPa | - | - | - | - |
| 1777173509 | 10° C | 58% | 1011 hPa | - | - | - | - |
| 1777172609 | 10° C | 58% | 1011 hPa | - | - | - | - |
| 1777171710 | 10° C | 62% | 1010 hPa | - | - | - | - |
* Rain since midnight (hover to see other rain measurements)
** Current wind speed in m/s (hover to see current wind gust speed)